Latest Weather Observations for Kadina

IDS60801

Issued at 11:05 pm CST Friday 1 August 2014 (issued every 30 minutes, with the page automatically refreshed every 10 minutes)

About weather observations | Map of weather stations | Latest weather observations for SA | Other Formats
Station Details ID: 022050 Name: KADINA AWS Lat: -33.97 Lon: 137.66 Height: 41.14 m
Data from the previous 72 hours. | See also: Recent months at Kadina
Date/Time
CST
Temp
°C
App
Temp
°C
Dew
Point
Rel
Hum
%
Delta-T
°C
Wind Press
QNH
hPa
Press
MSL
hPa
Rain
since 9 am
mm
Dir
 
Spd
km/h
Gust
km/h
Spd
kts
Gust
kts
01/11:00pm 0.1 -4.4 -0.5 96 0.2 E 13 13 7 7 1029.3 - 0.0
01/10:30pm 0.7 -4.1 0.1 96 0.2 ESE 15 17 8 9 1029.2 - 0.0
01/10:00pm 0.7 -3.8 0.0 95 0.3 ESE 13 13 7 7 1029.0 - 0.0
01/09:30pm 1.6 -2.4 0.7 94 0.3 SE 11 13 6 7 1028.8 - 0.0
01/09:00pm 2.3 -1.2 1.3 93 0.4 SE 9 11 5 6 1028.5 1028.4 0.0
01/08:30pm 2.7 -0.8 1.5 92 0.5 SE 9 9 5 5 1028.2 - 0.0
01/08:00pm 2.8 -1.1 1.3 90 0.6 ESE 11 13 6 7 1027.8 - 0.0
01/07:30pm 5.2 0.6 3.5 89 0.7 SSE 17 19 9 10 1027.4 - 0.0
01/07:00pm 4.9 1.0 3.4 90 0.6 S 13 15 7 8 1027.1 - 0.0
01/06:30pm 5.5 1.7 3.7 88 0.8 S 13 15 7 8 1026.6 - 0.0
01/06:00pm 6.8 3.1 4.5 85 1.0 SSW 13 15 7 8 1026.2 1026.1 0.0
01/05:30pm 8.1 5.0 5.6 84 1.1 SSW 11 13 6 7 1025.7 - 0.0
01/05:00pm 9.9 5.8 6.1 77 1.8 S 17 20 9 11 1025.2 - 0.0
01/04:30pm 11.4 5.9 5.7 68 2.6 SSW 24 32 13 17 1024.6 - 0.0
01/04:00pm 11.9 5.0 4.6 61 3.3 SSW 30 39 16 21 1024.1 - 0.0
01/03:30pm 11.5 4.3 4.9 64 3.0 SW 32 50 17 27 1023.6 - 0.0
01/03:28pm 11.8 4.4 4.1 59 3.5 SW 32 50 17 27 1023.4 - 0.0
01/03:00pm 12.8 5.4 6.6 66 3.0 SW 35 50 19 27 1023.0 1023.0 0.0
01/02:35pm 12.8 6.6 7.7 71 2.5 SW 30 48 16 26 1022.9 - 0.0
01/02:30pm 11.7 4.5 6.0 68 2.7 SW 33 48 18 26 1022.8 - 0.0
01/02:00pm 12.3 6.2 6.6 68 2.7 SSW 28 41 15 22 1022.5 - 0.0
01/01:30pm 10.6 5.0 7.3 80 1.6 SSW 26 41 14 22 1022.5 - 0.0
01/01:00pm 11.9 5.3 6.2 68 2.7 SW 30 43 16 23 1022.3 - 0.0
01/12:30pm 10.9 6.5 6.5 74 2.1 WSW 19 39 10 21 1022.5 - 0.0
01/12:28pm 10.4 5.8 5.6 72 2.2 WSW 19 39 10 21 1022.6 - 0.0
01/12:00pm 10.5 2.2 6.1 74 2.0 SSW 39 63 21 34 1022.3 1022.3 0.0
01/11:56am 11.8 4.1 5.2 64 3.0 SW 35 54 19 29 1022.2 - 0.0
01/11:30am 12.0 4.0 5.9 66 2.9 SSW 37 50 20 27 1021.9 - 0.0
01/11:00am 10.8 3.7 5.6 70 2.4 SSW 32 43 17 23 1021.7 - 0.0
01/10:42am 10.7 3.9 5.3 69 2.5 SW 30 48 16 26 1021.5 - 0.0
01/10:30am 11.0 3.8 5.7 70 2.5 SSW 33 46 18 25 1021.2 - 0.0
01/10:00am 8.8 3.0 6.1 83 1.2 SSW 26 37 14 20 1020.9 - 0.0
01/09:30am 9.9 2.8 5.3 73 2.1 S 32 50 17 27 1019.8 - 0.0
01/09:22am 11.3 4.0 4.7 64 3.0 SW 32 50 17 27 1019.4 - 0.0
01/09:00am 11.0 3.7 5.5 69 2.5 SW 33 46 18 25 1018.9 1018.9 3.4
01/08:30am 10.4 3.1 5.4 71 2.3 SW 33 48 18 26 1018.2 - 3.4
01/08:00am 9.7 1.8 4.1 68 2.5 SW 35 48 19 26 1017.5 - 3.4
01/07:55am 9.7 1.3 3.7 66 2.6 SW 37 56 20 30 1017.4 - 3.4
01/07:30am 9.5 2.1 4.9 73 2.1 SW 33 46 18 25 1017.2 - 3.4
01/07:00am 9.9 1.7 4.5 69 2.4 WSW 37 56 20 30 1016.6 - 3.4
01/06:59am 9.8 1.5 4.2 68 2.5 WSW 37 56 20 30 1016.6 - 3.4
01/06:30am 8.5 1.7 5.1 79 1.5 WSW 30 41 16 22 1016.1 - 3.4
01/06:14am 7.7 -1.7 4.5 80 1.4 WSW 43 69 23 37 1016.0 - 3.4
01/06:12am 7.6 -2.1 4.0 78 1.6 WSW 44 69 24 37 1016.0 - 3.4
01/06:00am 6.8 1.5 4.8 87 0.9 WSW 22 28 12 15 1015.7 1015.7 3.4
01/05:43am 5.9 -1.7 4.1 88 0.8 SW 33 56 18 30 1015.7 - 3.4
01/05:36am 6.1 -3.4 3.8 85 1.0 SSW 43 82 23 44 1015.8 - 3.2
01/05:32am 7.4 -6.0 3.5 76 1.7 SW 63 82 34 44 1015.6 - 3.0
01/05:31am 8.7 0.3 3.5 70 2.2 WSW 37 80 20 43 1015.7 - 3.0
01/05:30am 9.4 2.0 5.0 74 2.0 WSW 33 46 18 25 1015.4 - 3.0
01/05:05am 9.6 1.2 3.8 67 2.5 WSW 37 57 20 31 1014.7 - 3.0
01/05:00am 9.1 1.1 3.9 70 2.3 WSW 35 48 19 26 1014.8 - 3.0
01/04:30am 8.6 1.3 5.4 80 1.4 WSW 33 44 18 24 1014.5 - 3.0
01/04:00am 9.4 0.9 5.0 74 2.0 W 39 57 21 31 1014.4 - 2.8
01/03:55am 9.1 1.7 5.1 76 1.8 W 33 57 18 31 1014.1 - 2.8
01/03:30am 8.3 0.7 5.6 83 1.2 W 35 44 19 24 1014.2 - 2.8
01/03:00am 8.1 0.9 5.2 82 1.3 W 32 41 17 22 1014.0 1013.9 2.8
01/02:30am 8.0 0.3 5.3 83 1.2 W 35 44 19 24 1014.0 - 2.8
01/02:00am 8.6 1.4 5.9 83 1.2 W 33 46 18 25 1013.9 - 2.8
01/01:33am 8.9 -0.2 4.1 72 2.1 W 41 61 22 33 1014.0 - 2.8
01/01:30am 8.9 -0.1 4.3 73 2.0 W 41 56 22 30 1014.0 - 2.8
01/01:22am 9.0 0.8 5.0 76 1.8 W 37 56 20 30 1013.9 - 2.8
01/01:00am 8.5 0.7 5.1 79 1.5 W 35 50 19 27 1014.0 - 2.8
01/12:30am 8.7 0.5 4.9 77 1.7 W 37 50 20 27 1013.9 - 2.8
01/12:00am 8.7 0.9 4.7 76 1.8 W 35 50 19 27 1013.9 1013.8 2.8
 
Date/Time
CST
Temp
°C
App
Temp
°C
Dew
Point
Rel
Hum
%
Delta-T
°C
Wind Press
QNH
hPa
Press
MSL
hPa
Rain
since 9 am
mm
Dir
 
Spd
km/h
Gust
km/h
Spd
kts
Gust
kts
31/11:30pm 9.0 1.1 4.2 72 2.1 W 35 46 19 25 1014.0 - 2.8
31/11:00pm 9.5 1.9 4.1 69 2.4 W 33 46 18 25 1013.9 - 2.8
31/10:30pm 9.0 2.0 4.0 71 2.2 W 30 43 16 23 1013.6 - 2.8
31/10:00pm 9.0 1.8 5.0 76 1.8 W 32 41 17 22 1013.4 - 2.8
31/09:30pm 9.2 2.3 4.8 74 2.0 W 30 41 16 22 1013.2 - 2.8
31/09:00pm 8.8 1.8 4.0 72 2.1 W 30 43 16 23 1012.9 1012.8 2.8
31/08:30pm 8.2 3.0 5.5 83 1.2 W 22 30 12 16 1013.0 - 2.8
31/08:00pm 8.4 0.5 6.2 86 1.0 WSW 37 56 20 30 1012.8 - 2.8
31/07:48pm 10.0 2.6 5.0 71 2.3 W 33 52 18 28 1012.7 - 2.4
31/07:30pm 9.9 2.2 3.2 63 2.9 W 33 50 18 27 1012.1 - 2.4
31/07:00pm 9.7 2.4 4.7 71 2.2 WSW 32 46 17 25 1011.8 - 2.4
31/06:30pm 10.0 3.2 5.2 72 2.2 WSW 30 41 16 22 1011.4 - 2.4
31/06:04pm 10.1 2.6 6.3 77 1.8 WSW 35 54 19 29 1011.0 - 2.4
31/06:00pm 10.3 2.3 5.9 74 2.0 WSW 37 54 20 29 1010.8 1010.7 2.4
31/05:34pm 10.0 2.8 7.8 86 1.1 WSW 35 59 19 32 1010.5 - 2.4
31/05:30pm 10.0 3.3 8.3 89 0.8 WSW 33 44 18 24 1010.4 - 2.4
31/05:09pm 10.6 3.3 7.1 79 1.7 WSW 35 69 19 37 1009.9 - 2.2
31/05:00pm 10.9 4.1 7.6 80 1.6 WSW 33 46 18 25 1009.8 - 2.2
31/04:30pm 10.8 1.1 9.1 89 0.8 W 50 78 27 42 1009.4 - 2.0
31/04:19pm 11.5 3.4 8.7 83 1.4 W 41 74 22 40 1009.1 - 2.0
31/04:02pm 11.5 5.8 9.8 89 0.9 WSW 30 50 16 27 1008.8 - 2.0
31/04:00pm 11.7 6.1 10.1 90 0.8 WSW 30 41 16 22 1008.8 - 2.0
31/03:30pm 11.7 3.6 9.9 89 0.9 W 43 67 23 36 1008.6 - 1.8
31/03:00pm 11.4 3.7 10.3 93 0.6 W 41 59 22 32 1008.2 1008.1 1.6
31/02:51pm 12.0 6.5 10.7 92 0.7 W 30 59 16 32 1008.2 - 1.0
31/02:30pm 12.4 7.0 10.8 90 0.8 W 30 39 16 21 1007.6 - 0.8
31/02:00pm 12.1 6.4 11.3 95 0.4 WSW 32 43 17 23 1007.5 - 0.8
31/01:30pm 12.2 6.5 11.3 94 0.5 WSW 32 44 17 24 1007.1 - 0.2
31/01:00pm 12.9 5.9 11.3 90 0.8 WSW 39 52 21 28 1007.1 - 0.0
31/12:54pm 14.4 6.4 10.6 78 2.0 WSW 43 52 23 28 1006.9 - 0.0
31/12:34pm 16.1 9.9 10.2 68 3.1 WNW 33 57 18 31 1006.4 - 0.0
31/12:30pm 15.9 10.3 10.2 69 3.0 WNW 30 44 16 24 1006.5 - 0.0
31/12:00pm 17.4 11.5 10.3 63 3.8 WNW 32 41 17 22 1006.9 1006.8 0.0
31/11:30am 16.5 10.0 10.4 67 3.2 NNW 35 43 19 23 1007.2 - 0.0
31/11:00am 15.5 8.1 8.3 62 3.6 NNW 37 48 20 26 1007.3 - 0.0
31/10:30am 14.8 7.0 8.1 64 3.4 N 39 48 21 26 1007.9 - 0.0
31/10:00am 14.1 7.0 8.1 67 3.0 NNW 35 48 19 26 1008.0 - 0.0
31/09:30am 13.9 6.5 8.3 69 2.8 NNW 37 46 20 25 1008.3 - 0.0
31/09:00am 13.5 6.9 8.6 72 2.5 NNW 33 44 18 24 1008.5 1008.4 0.0
31/08:30am 13.0 7.4 8.9 76 2.1 N 28 39 15 21 1008.5 - 0.0
31/08:00am 11.4 6.7 9.1 86 1.2 N 24 28 13 15 1008.6 - 0.0
31/07:30am 10.7 6.2 8.6 87 1.0 N 22 28 12 15 1008.6 - 0.0
31/07:00am 11.4 6.0 8.1 80 1.6 N 26 35 14 19 1008.7 - 0.0
31/06:30am 12.6 5.9 7.3 70 2.6 NNW 32 39 17 21 1008.8 - 0.0
31/06:00am 12.5 6.6 7.6 72 2.4 NNW 28 37 15 20 1008.8 1008.7 0.0
31/05:30am 12.4 6.9 7.7 73 2.3 NNW 26 33 14 18 1008.9 - 0.0
31/05:00am 12.2 6.7 7.7 74 2.2 NNW 26 35 14 19 1008.9 - 0.0
31/04:30am 12.7 6.9 8.0 73 2.3 NNW 28 37 15 20 1009.2 - 0.0
31/04:00am 12.6 6.8 8.1 74 2.2 NNW 28 33 15 18 1009.6 - 0.0
31/03:30am 12.0 6.7 8.3 78 1.8 NNW 26 32 14 17 1010.2 - 0.0
31/03:00am 12.4 6.7 8.3 76 2.0 NNW 28 37 15 20 1010.6 1010.5 0.0
31/02:30am 12.2 6.9 8.5 78 1.8 NNW 26 33 14 18 1011.0 - 0.0
31/02:00am 12.0 7.2 8.7 80 1.6 NNW 24 30 13 16 1011.4 - 0.0
31/01:30am 11.9 7.4 8.7 81 1.6 NNW 22 28 12 15 1011.9 - 0.0
31/01:00am 12.3 7.5 9.0 80 1.7 NNW 24 28 13 15 1012.1 - 0.0
31/12:30am 12.1 7.5 9.5 84 1.3 NNW 24 30 13 16 1012.5 - 0.0
31/12:00am 12.1 7.8 9.3 83 1.4 NNW 22 28 12 15 1012.8 1012.7 0.0
 
Date/Time
CST
Temp
°C
App
Temp
°C
Dew
Point
Rel
Hum
%
Delta-T
°C
Wind Press
QNH
hPa
Press
MSL
hPa
Rain
since 9 am
mm
Dir
 
Spd
km/h
Gust
km/h
Spd
kts
Gust
kts
30/11:30pm 12.0 8.3 9.4 84 1.3 NNW 19 24 10 13 1013.1 - 0.0
30/11:00pm 12.0 8.6 9.2 83 1.4 NNW 17 20 9 11 1013.5 - 0.0
30/10:30pm 12.1 8.5 10.0 87 1.1 NNW 19 20 10 11 1013.9 - 0.0
30/10:00pm 11.9 8.3 10.0 88 1.0 NNW 19 22 10 12 1014.3 - 0.0
30/09:30pm 12.3 8.7 10.0 86 1.2 NW 19 20 10 11 1014.8 - 0.0
30/09:00pm 11.1 8.1 9.4 89 0.9 NW 15 17 8 9 1014.9 1014.8 0.0
30/08:30pm 11.4 8.4 9.3 87 1.1 NNW 15 17 8 9 1015.0 - 0.0
30/08:00pm 11.4 8.2 9.8 90 0.8 NW 17 20 9 11 1015.2 - 0.0
30/07:30pm 9.4 6.0 7.8 90 0.8 NNW 15 17 8 9 1015.2 - 0.0
30/07:00pm 10.2 7.3 8.3 88 0.9 N 13 15 7 8 1015.3 - 0.0
30/06:30pm 10.8 8.1 8.9 88 0.9 N 13 15 7 8 1015.1 - 0.0
30/06:00pm 11.7 9.2 9.8 88 1.0 N 13 15 7 8 1015.0 1014.9 0.0
30/05:30pm 12.9 10.6 10.4 85 1.3 N 13 15 7 8 1015.1 - 0.0
30/05:00pm 15.3 13.7 11.7 79 1.9 N 11 13 6 7 1015.3 - 0.0
30/04:30pm 16.2 14.2 11.4 73 2.6 NNW 13 17 7 9 1015.4 - 0.0
30/04:00pm 16.5 13.4 11.6 73 2.7 N 19 24 10 13 1015.7 - 0.0
30/03:30pm 16.4 13.3 11.6 73 2.6 NNW 19 24 10 13 1016.0 - 0.0
30/03:00pm 16.0 12.0 11.8 76 2.3 N 24 30 13 16 1016.2 1016.2 0.0
30/02:30pm 16.1 12.1 11.9 76 2.3 N 24 32 13 17 1016.5 - 0.0
30/02:00pm 15.9 11.6 12.1 78 2.1 N 26 32 14 17 1016.7 - 0.0
30/01:30pm 15.8 11.6 12.4 80 1.9 N 26 33 14 18 1017.1 - 0.0
30/01:00pm 15.8 11.1 12.0 78 2.1 N 28 35 15 19 1017.6 - 0.0
30/12:30pm 16.3 11.7 13.6 84 1.5 N 30 35 16 19 1018.1 - 0.0
30/12:00pm 15.6 10.7 12.5 82 1.7 N 30 39 16 21 1018.7 1018.7 0.0
30/11:30am 15.1 10.2 12.4 84 1.5 NNW 30 35 16 19 1019.1 - 0.0
30/11:00am 15.4 12.0 12.5 83 1.6 NNW 22 26 12 14 1019.5 - 0.0
30/10:30am 13.9 10.4 12.1 89 1.0 NNW 22 32 12 17 1019.9 - 0.0
30/10:00am 13.4 9.4 11.8 90 0.9 NNW 24 33 13 18 1020.2 - 0.0
30/09:30am 13.0 9.4 11.7 92 0.7 NNW 22 30 12 16 1020.1 - 0.0
30/09:00am 12.5 9.1 11.4 93 0.6 NNW 20 30 11 16 1020.1 1020.1 0.0
30/08:30am 12.2 8.8 11.4 95 0.4 N 20 26 11 14 1020.0 - 0.0
30/08:00am 11.4 8.4 10.8 96 0.3 N 17 20 9 11 1019.7 - 0.0
30/07:30am 11.0 7.3 10.2 95 0.4 N 20 24 11 13 1019.6 - 0.0
30/07:00am 11.7 7.8 10.8 94 0.5 N 22 30 12 16 1019.4 - 0.0
30/06:30am 11.8 9.3 11.0 95 0.4 N 15 20 8 11 1019.3 - 0.0
30/06:00am 12.0 9.0 10.7 92 0.7 N 17 24 9 13 1019.0 1019.0 0.0
30/05:30am 12.1 8.6 11.0 93 0.6 NNW 20 24 11 13 1018.9 - 0.0
30/05:00am 12.2 8.7 10.9 92 0.7 N 20 26 11 14 1018.9 - 0.0
30/04:30am 12.1 9.6 11.0 93 0.6 N 15 19 8 10 1018.8 - 0.0
30/04:00am 12.0 9.5 11.1 94 0.5 NNW 15 19 8 10 1019.1 - 0.0
30/03:30am 11.4 9.1 10.5 94 0.5 N 13 15 7 8 1019.2 - 0.0
30/03:00am 11.2 8.4 10.1 93 0.6 NNW 15 17 8 9 1019.3 1019.3 0.0
30/02:30am 11.2 8.0 9.8 91 0.7 NNW 17 20 9 11 1019.6 - 0.0
30/02:00am 12.5 9.4 10.4 87 1.1 NNW 17 22 9 12 1019.6 - 0.0
30/01:30am 12.3 9.2 10.4 88 1.0 NW 17 20 9 11 1020.0 - 0.0
30/01:00am 12.9 10.8 11.0 88 1.0 NW 13 15 7 8 1020.0 - 0.0
30/12:30am 12.9 10.0 11.0 88 1.0 NW 17 20 9 11 1019.9 - 0.0
30/12:00am 13.3 9.2 11.4 88 1.0 WNW 24 32 13 17 1020.3 1020.3 0.0
 
Date/Time
CST
Temp
°C
App
Temp
°C
Dew
Point
Rel
Hum
%
Delta-T
°C
Wind Press
QNH
hPa
Press
MSL
hPa
Rain
since 9 am
mm
Dir
 
Spd
km/h
Gust
km/h
Spd
kts
Gust
kts
29/11:30pm 13.7 9.8 10.9 83 1.5 WNW 22 32 12 17 1020.4 - 0.0

Other Formats:

Comma delimited format used in spreadsheet applications
http://www.bom.gov.au/fwo/IDS60801/IDS60801.94685.axf

JavaScript Object Notation format (JSON) in row-major order
http://www.bom.gov.au/fwo/IDS60801/IDS60801.94685.json